createdAt,value
2016-04-27T00:00:59.638Z,942.14
2016-04-27T00:01:59.656Z,942.18
2016-04-27T00:02:59.659Z,942.19
2016-04-27T00:03:59.677Z,942.19
2016-04-27T00:04:59.680Z,942.22
2016-04-27T00:05:59.682Z,942.24
2016-04-27T00:06:59.701Z,942.31
2016-04-27T00:07:59.703Z,942.32
2016-04-27T00:08:59.707Z,942.26
2016-04-27T00:09:59.724Z,942.31
2016-04-27T00:10:59.726Z,942.33
2016-04-27T00:11:59.729Z,942.35
2016-04-27T00:12:59.748Z,942.31
2016-04-27T00:13:59.751Z,942.3
2016-04-27T00:14:59.753Z,942.26
2016-04-27T00:15:59.772Z,942.28
2016-04-27T00:16:59.774Z,942.22
2016-04-27T00:17:59.792Z,942.19
2016-04-27T00:18:59.795Z,942.29
2016-04-27T00:20:03.625Z,942.23
2016-04-27T00:21:02.254Z,942.17
2016-04-27T00:22:00.116Z,942.12
2016-04-27T00:22:59.838Z,942.17
2016-04-27T00:23:59.841Z,942.2
2016-04-27T00:24:59.843Z,942.17
2016-04-27T00:25:59.861Z,942.15
2016-04-27T00:26:59.863Z,942.21
2016-04-27T00:27:59.866Z,942.17
2016-04-27T00:28:59.885Z,942.22
2016-04-27T00:29:59.888Z,942.23
2016-04-27T00:30:59.890Z,942.21
2016-04-27T00:31:59.908Z,942.22
2016-04-27T00:32:59.911Z,942.25
2016-04-27T00:33:59.930Z,942.24
2016-04-27T00:34:59.932Z,942.24
2016-04-27T00:36:03.607Z,942.19
2016-04-27T00:36:59.953Z,942.16
2016-04-27T00:37:59.956Z,942.17
2016-04-27T00:38:59.974Z,942.13
2016-04-27T00:40:00.057Z,942.09
2016-04-27T00:40:59.983Z,942.13
2016-04-27T00:42:00.197Z,942.17
2016-04-27T00:42:59.999Z,942.19
2016-04-27T00:43:59.999Z,942.27
2016-04-27T00:45:00.040Z,942.3
2016-04-27T00:46:00.012Z,942.3
2016-04-27T00:47:00.046Z,942.32
2016-04-27T00:48:00.032Z,942.39
2016-04-27T00:49:00.051Z,942.38
2016-04-27T00:50:00.054Z,942.32
2016-04-27T00:51:00.057Z,942.22
2016-04-27T00:52:00.075Z,942.17
2016-04-27T00:53:00.078Z,942.14
2016-04-27T00:54:00.111Z,942.07
2016-04-27T00:55:00.097Z,942.01
2016-04-27T00:56:00.101Z,942.07
2016-04-27T00:57:00.120Z,942.08
2016-04-27T00:58:00.122Z,942.08
2016-04-27T00:59:00.124Z,942.04
2016-04-27T01:00:00.144Z,942.06
2016-04-27T01:01:00.146Z,942.05
2016-04-27T01:02:00.164Z,942.05
2016-04-27T01:03:00.167Z,942.05
2016-04-27T01:04:00.169Z,942.05
2016-04-27T01:05:00.188Z,942.08
2016-04-27T01:06:00.190Z,942.03
2016-04-27T01:07:00.209Z,942.07
2016-04-27T01:08:00.211Z,942.16
2016-04-27T01:09:00.213Z,942.19
2016-04-27T01:10:00.233Z,942.21
2016-04-27T01:11:00.251Z,942.2
2016-04-27T01:12:00.253Z,942.23
2016-04-27T01:13:00.256Z,942.25
2016-04-27T01:14:00.274Z,942.29
2016-04-27T01:15:00.262Z,942.31
2016-04-27T01:16:00.279Z,942.27
2016-04-27T01:17:00.282Z,942.27
2016-04-27T01:18:00.301Z,942.28
2016-04-27T01:19:00.303Z,942.29
2016-04-27T01:20:00.306Z,942.34
2016-04-27T01:21:00.528Z,942.41
2016-04-27T01:22:00.967Z,942.47
2016-04-27T01:23:00.337Z,942.41
2016-04-27T01:24:00.355Z,942.34
2016-04-27T01:25:00.358Z,942.34
2016-04-27T01:26:00.361Z,942.38
2016-04-27T01:27:00.380Z,942.33
2016-04-27T01:28:00.382Z,942.36
2016-04-27T01:29:00.400Z,942.36
2016-04-27T01:30:00.403Z,942.4
2016-04-27T01:31:00.406Z,942.4
2016-04-27T01:32:00.424Z,942.42
2016-04-27T01:33:00.427Z,942.42
2016-04-27T01:34:00.430Z,942.39
2016-04-27T01:35:00.449Z,942.37
2016-04-27T01:36:00.451Z,942.35
2016-04-27T01:37:00.469Z,942.32
2016-04-27T01:38:00.472Z,942.3
2016-04-27T01:39:00.474Z,942.27
2016-04-27T01:40:00.493Z,942.33
2016-04-27T01:41:00.495Z,942.37
2016-04-27T01:42:00.498Z,942.41
2016-04-27T01:43:00.516Z,942.44
2016-04-27T01:44:00.534Z,942.49
2016-04-27T01:45:00.537Z,942.53
2016-04-27T01:46:00.540Z,942.63
2016-04-27T01:47:00.543Z,942.71
2016-04-27T01:48:00.561Z,942.74
2016-04-27T01:49:00.564Z,942.68
2016-04-27T01:50:00.583Z,942.71
2016-04-27T01:51:00.586Z,942.71
2016-04-27T01:52:00.588Z,942.73
2016-04-27T01:53:00.607Z,942.66
2016-04-27T01:54:00.610Z,942.66
2016-04-27T01:55:00.612Z,942.67
2016-04-27T01:56:00.645Z,942.64
2016-04-27T01:57:00.649Z,942.62
2016-04-27T01:58:00.651Z,942.63
2016-04-27T01:59:00.670Z,942.61
2016-04-27T02:00:00.656Z,942.57
2016-04-27T02:01:00.675Z,942.55
2016-04-27T02:02:00.678Z,942.56
2016-04-27T02:03:00.696Z,942.6
2016-04-27T02:04:00.714Z,942.6
2016-04-27T02:05:00.701Z,942.58
2016-04-27T02:06:00.720Z,942.63
2016-04-27T02:07:00.723Z,942.64
2016-04-27T02:08:00.725Z,942.72
2016-04-27T02:09:00.759Z,942.71
2016-04-27T02:10:00.747Z,942.72
2016-04-27T02:11:00.781Z,942.71
2016-04-27T02:12:00.767Z,942.69
2016-04-27T02:13:00.769Z,942.69
2016-04-27T02:14:00.788Z,942.71
2016-04-27T02:15:00.791Z,942.7
2016-04-27T02:16:00.809Z,942.69
2016-04-27T02:17:00.812Z,942.8
2016-04-27T02:18:00.815Z,942.81
2016-04-27T02:19:00.833Z,942.85
2016-04-27T02:20:00.835Z,942.8
2016-04-27T02:21:00.854Z,942.8
2016-04-27T02:22:00.857Z,942.78
2016-04-27T02:23:00.860Z,942.85
2016-04-27T02:24:00.877Z,942.87
2016-04-27T02:25:00.880Z,942.87
2016-04-27T02:26:00.899Z,942.93
2016-04-27T02:27:00.902Z,942.89
2016-04-27T02:28:00.919Z,942.91
2016-04-27T02:29:00.922Z,942.96
2016-04-27T02:30:00.941Z,943.04
2016-04-27T02:31:00.943Z,943.09
2016-04-27T02:32:00.945Z,943.12
2016-04-27T02:33:00.948Z,943.12
2016-04-27T02:34:00.967Z,943.2
2016-04-27T02:35:00.970Z,943.19
2016-04-27T02:36:00.972Z,943.16
2016-04-27T02:37:00.992Z,943.11
2016-04-27T02:38:00.993Z,943.1
2016-04-27T02:39:01.012Z,943.04
2016-04-27T02:40:01.014Z,943.03
2016-04-27T02:41:01.017Z,943.03
2016-04-27T02:42:01.036Z,943.02
2016-04-27T02:43:01.046Z,943.06
2016-04-27T02:44:01.090Z,943.09
2016-04-27T02:45:01.149Z,943.1
2016-04-27T02:46:01.195Z,943.12
2016-04-27T02:47:01.255Z,943.14
2016-04-27T02:48:01.294Z,943.14
2016-04-27T02:49:01.313Z,943.19
2016-04-27T02:50:01.347Z,943.16
2016-04-27T02:51:01.366Z,943.18
2016-04-27T02:52:01.398Z,943.2
2016-04-27T02:53:01.414Z,943.19
2016-04-27T02:54:01.423Z,943.18
2016-04-27T02:55:01.446Z,943.14
2016-04-27T02:56:01.455Z,943.18
2016-04-27T02:57:01.462Z,943.16
2016-04-27T02:58:01.486Z,943.14
2016-04-27T02:59:01.490Z,943.17
2016-04-27T03:00:01.496Z,943.18
2016-04-27T03:01:01.515Z,943.13
2016-04-27T03:02:01.519Z,943.12
2016-04-27T03:03:01.540Z,943.15
2016-04-27T03:04:01.543Z,943.06
2016-04-27T03:05:01.547Z,943.09
2016-04-27T03:06:01.565Z,943.09
2016-04-27T03:07:01.569Z,943.12
2016-04-27T03:08:01.588Z,943.2
2016-04-27T03:09:01.591Z,943.28
2016-04-27T03:10:01.611Z,943.28
2016-04-27T03:11:01.613Z,943.31
2016-04-27T03:12:01.616Z,943.34
2016-04-27T03:13:01.620Z,943.35
2016-04-27T03:14:01.638Z,943.34
2016-04-27T03:15:01.640Z,943.25
2016-04-27T03:16:01.658Z,943.24
2016-04-27T03:17:01.661Z,943.22
2016-04-27T03:18:01.664Z,943.28
2016-04-27T03:19:01.682Z,943.34
2016-04-27T03:20:01.685Z,943.34
2016-04-27T03:21:01.688Z,943.42
2016-04-27T03:22:01.706Z,943.43
2016-04-27T03:23:01.708Z,943.41
2016-04-27T03:24:01.727Z,943.4
2016-04-27T03:25:01.730Z,943.44
2016-04-27T03:26:01.733Z,943.41
2016-04-27T03:27:01.766Z,943.39
2016-04-27T03:28:01.752Z,943.38
2016-04-27T03:29:01.756Z,943.39
2016-04-27T03:30:01.774Z,943.37
2016-04-27T03:31:01.777Z,943.42
2016-04-27T03:32:01.796Z,943.46
2016-04-27T03:33:01.798Z,943.54
2016-04-27T03:34:01.832Z,943.59
2016-04-27T03:35:01.819Z,943.66
2016-04-27T03:36:01.821Z,943.69
2016-04-27T03:37:02.387Z,943.63
2016-04-27T03:38:01.843Z,943.65
2016-04-27T03:39:01.861Z,943.68
2016-04-27T03:40:01.864Z,943.65
2016-04-27T03:41:01.882Z,943.69
2016-04-27T03:42:01.869Z,943.66
2016-04-27T03:43:01.887Z,943.69
2016-04-27T03:44:01.890Z,943.71
2016-04-27T03:45:01.892Z,943.7
2016-04-27T03:46:01.911Z,943.77
2016-04-27T03:47:01.914Z,943.79
2016-04-27T03:48:01.932Z,943.78
2016-04-27T03:49:01.934Z,943.78
2016-04-27T03:50:01.937Z,943.71
2016-04-27T03:51:01.939Z,943.77
2016-04-27T03:52:01.959Z,943.8
2016-04-27T03:53:01.977Z,943.74
2016-04-27T03:54:01.980Z,943.82
2016-04-27T03:55:01.983Z,943.82
2016-04-27T03:56:01.985Z,943.89
2016-04-27T03:57:02.003Z,943.9
2016-04-27T03:58:02.005Z,943.93
2016-04-27T03:59:02.024Z,943.97
2016-04-27T04:00:02.027Z,943.96
2016-04-27T04:01:02.029Z,943.99
2016-04-27T04:02:02.048Z,943.96
2016-04-27T04:03:02.051Z,943.89
2016-04-27T04:04:02.069Z,943.93
2016-04-27T04:05:02.072Z,943.95
2016-04-27T04:06:02.075Z,944
2016-04-27T04:07:02.093Z,944.04
2016-04-27T04:08:02.096Z,944.02
2016-04-27T04:09:02.099Z,944.02
2016-04-27T04:10:02.117Z,943.93
2016-04-27T04:11:02.119Z,943.92
2016-04-27T04:12:02.123Z,943.87
2016-04-27T04:13:02.141Z,943.9
2016-04-27T04:14:02.143Z,943.98
2016-04-27T04:15:02.162Z,944.1
2016-04-27T04:16:02.165Z,944.11
2016-04-27T04:17:02.167Z,944.11
2016-04-27T04:18:02.186Z,944.13
2016-04-27T04:19:02.188Z,944.1
2016-04-27T04:20:02.207Z,944.1
2016-04-27T04:21:02.210Z,944.09
2016-04-27T04:22:02.213Z,944.12
2016-04-27T04:23:02.219Z,944.18
2016-04-27T04:24:02.236Z,944.17
2016-04-27T04:25:02.239Z,944.18
2016-04-27T04:26:02.241Z,944.25
2016-04-27T04:27:02.261Z,944.24
2016-04-27T04:28:02.263Z,944.24
2016-04-27T04:29:02.282Z,944.23
2016-04-27T04:30:02.285Z,944.26
2016-04-27T04:31:02.288Z,944.22
2016-04-27T04:32:02.305Z,944.29
2016-04-27T04:33:02.308Z,944.19
2016-04-27T04:34:02.310Z,944.25
2016-04-27T04:35:02.329Z,944.31
2016-04-27T04:36:02.331Z,944.31
2016-04-27T04:37:02.365Z,944.31
2016-04-27T04:38:02.353Z,944.31
2016-04-27T04:39:02.356Z,944.34
2016-04-27T04:40:02.373Z,944.38
2016-04-27T04:41:02.376Z,944.3
2016-04-27T04:42:02.379Z,944.33
2016-04-27T04:43:02.397Z,944.31
2016-04-27T04:44:02.416Z,944.4
2016-04-27T04:45:02.418Z,944.39
2016-04-27T04:46:02.421Z,944.41
2016-04-27T04:47:02.423Z,944.42
2016-04-27T04:48:02.442Z,944.46
2016-04-27T04:49:02.445Z,944.33
2016-04-27T04:50:02.463Z,944.43
2016-04-27T04:51:02.466Z,944.37
2016-04-27T04:52:02.469Z,944.45
2016-04-27T04:53:02.471Z,944.43
2016-04-27T04:54:02.490Z,944.53
2016-04-27T04:55:02.492Z,944.49
2016-04-27T04:56:02.510Z,944.5
2016-04-27T04:57:02.513Z,944.51
2016-04-27T04:58:02.516Z,944.45
2016-04-27T04:59:02.534Z,944.43
2016-04-27T05:00:02.537Z,944.41
2016-04-27T05:01:02.556Z,944.4
2016-04-27T05:02:02.558Z,944.41
2016-04-27T05:03:02.577Z,944.43
2016-04-27T05:04:02.579Z,944.44
2016-04-27T05:05:02.582Z,944.43
2016-04-27T05:06:02.600Z,944.41
2016-04-27T05:07:02.618Z,944.46
2016-04-27T05:08:02.605Z,944.52
2016-04-27T05:09:02.623Z,944.56
2016-04-27T05:10:02.626Z,944.55
2016-04-27T05:11:02.629Z,944.54
2016-04-27T05:12:02.648Z,944.55
2016-04-27T05:13:02.651Z,944.58
2016-04-27T05:14:02.668Z,944.59
2016-04-27T05:15:02.671Z,944.67
2016-04-27T05:16:02.673Z,944.68
2016-04-27T05:17:02.692Z,944.68
2016-04-27T05:18:02.694Z,944.67
2016-04-27T05:19:02.713Z,944.64
2016-04-27T05:20:02.716Z,944.64
2016-04-27T05:21:02.719Z,944.67
2016-04-27T05:22:02.737Z,944.74
2016-04-27T05:23:02.739Z,944.72
2016-04-27T05:24:02.742Z,944.79
2016-04-27T05:25:02.760Z,944.79
2016-04-27T05:26:02.763Z,944.74
2016-04-27T05:27:02.781Z,944.75
2016-04-27T05:28:02.783Z,944.73
2016-04-27T05:29:02.787Z,944.73
2016-04-27T05:30:02.805Z,944.81
2016-04-27T05:31:02.808Z,944.77
2016-04-27T05:32:02.827Z,944.84
2016-04-27T05:33:02.829Z,944.79
2016-04-27T05:34:02.832Z,944.82
2016-04-27T05:35:02.849Z,944.83
2016-04-27T05:36:02.852Z,944.88
2016-04-27T05:37:03.387Z,944.9
2016-04-27T05:38:02.874Z,944.94
2016-04-27T05:39:02.876Z,944.99
2016-04-27T05:40:02.895Z,945.02
2016-04-27T05:41:02.898Z,945.01
2016-04-27T05:42:02.900Z,945.05
2016-04-27T05:43:02.934Z,945.04
2016-04-27T05:44:02.936Z,945.08
2016-04-27T05:45:02.923Z,945.09
2016-04-27T05:46:02.942Z,945.08
2016-04-27T05:47:02.945Z,945.06
2016-04-27T05:48:02.963Z,945.12
2016-04-27T05:49:02.965Z,945.14
2016-04-27T05:50:02.984Z,945.14
2016-04-27T05:51:02.986Z,945.12
2016-04-27T05:52:03.239Z,945.12
2016-04-27T05:53:03.461Z,945.09
2016-04-27T05:54:03.011Z,945.09
2016-04-27T05:55:03.028Z,945.16
2016-04-27T05:56:03.031Z,945.15
2016-04-27T05:57:03.034Z,945.2
2016-04-27T05:58:03.053Z,945.21
2016-04-27T05:59:03.055Z,945.18
2016-04-27T06:00:03.074Z,945.19
2016-04-27T06:01:03.076Z,945.18
2016-04-27T06:02:03.094Z,945.18
2016-04-27T06:03:03.144Z,945.23
2016-04-27T06:04:03.100Z,945.21
2016-04-27T06:05:03.118Z,945.14
2016-04-27T06:06:03.136Z,945.1
2016-04-27T06:07:04.107Z,945.04
2016-04-27T06:08:03.141Z,945.09
2016-04-27T06:09:03.144Z,945.1
2016-04-27T06:10:03.162Z,945.16
2016-04-27T06:11:03.166Z,945.23
2016-04-27T06:12:03.168Z,945.26
2016-04-27T06:13:03.187Z,945.21
2016-04-27T06:14:03.190Z,945.25
2016-04-27T06:15:03.207Z,945.24
2016-04-27T06:16:03.210Z,945.2
2016-04-27T06:17:03.212Z,945.14
2016-04-27T06:18:03.231Z,945.12
2016-04-27T06:19:03.234Z,945.14
2016-04-27T06:20:03.252Z,945.1
2016-04-27T06:21:03.256Z,945.07
2016-04-27T06:22:03.273Z,945.12
2016-04-27T06:23:03.276Z,945.1
2016-04-27T06:24:03.279Z,945.11
2016-04-27T06:25:03.297Z,945.16
2016-04-27T06:26:03.300Z,945.15
2016-04-27T06:27:03.317Z,945.17
2016-04-27T06:28:03.320Z,945.13
2016-04-27T06:29:03.339Z,945.18
2016-04-27T06:30:03.341Z,945.14
2016-04-27T06:31:03.360Z,945.18
2016-04-27T06:32:03.363Z,945.23
2016-04-27T06:33:03.380Z,945.12
2016-04-27T06:34:03.383Z,945.19
2016-04-27T06:35:03.402Z,945.22
2016-04-27T06:36:03.404Z,945.19
2016-04-27T06:37:03.407Z,945.15
2016-04-27T06:38:03.425Z,945.13
2016-04-27T06:39:03.429Z,945.2
2016-04-27T06:40:03.446Z,945.19
2016-04-27T06:41:03.449Z,945.26
2016-04-27T06:42:03.483Z,945.38
2016-04-27T06:43:03.470Z,945.42
2016-04-27T06:44:03.488Z,945.46
2016-04-27T06:45:03.491Z,945.48
2016-04-27T06:46:03.509Z,945.49
2016-04-27T06:47:03.512Z,945.5
2016-04-27T06:48:03.531Z,945.5
2016-04-27T06:49:03.549Z,945.55
2016-04-27T06:50:03.552Z,945.56
2016-04-27T06:51:03.554Z,945.48
2016-04-27T06:52:03.572Z,945.5
2016-04-27T06:53:03.576Z,945.45
2016-04-27T06:54:03.594Z,945.42
2016-04-27T06:55:03.612Z,945.38
2016-04-27T06:56:03.599Z,945.36
2016-04-27T06:57:03.617Z,945.3
2016-04-27T06:58:03.620Z,945.28
2016-04-27T06:59:03.639Z,945.27
2016-04-27T07:00:03.641Z,945.35
2016-04-27T07:01:03.659Z,945.31
2016-04-27T07:02:03.662Z,945.3
2016-04-27T07:03:03.680Z,945.34
2016-04-27T07:04:03.683Z,945.37
2016-04-27T07:05:03.701Z,945.36
2016-04-27T07:06:03.704Z,945.37
2016-04-27T07:07:04.410Z,945.52
2016-04-27T07:08:03.772Z,945.49
2016-04-27T07:09:03.744Z,945.49
2016-04-27T07:10:03.746Z,945.54
2016-04-27T07:11:03.765Z,945.54
2016-04-27T07:12:03.768Z,945.56
2016-04-27T07:13:03.785Z,945.59
2016-04-27T07:14:03.788Z,945.66
2016-04-27T07:15:03.806Z,945.76
2016-04-27T07:16:03.809Z,945.73
2016-04-27T07:17:03.827Z,945.74
2016-04-27T07:18:03.830Z,945.71
2016-04-27T07:19:03.833Z,945.69
2016-04-27T07:20:03.851Z,945.61
2016-04-27T07:21:03.854Z,945.58
2016-04-27T07:22:04.637Z,945.52
2016-04-27T07:23:04.562Z,945.54
2016-04-27T07:24:03.892Z,945.59
2016-04-27T07:25:03.912Z,945.54
2016-04-27T07:26:03.914Z,945.61
2016-04-27T07:27:03.916Z,945.61
2016-04-27T07:28:03.936Z,945.63
2016-04-27T07:29:03.938Z,945.7
2016-04-27T07:30:03.955Z,945.73
2016-04-27T07:31:03.959Z,945.76
2016-04-27T07:32:03.977Z,945.79
2016-04-27T07:33:03.980Z,945.73
2016-04-27T07:34:03.983Z,945.74
2016-04-27T07:35:04.000Z,945.73
2016-04-27T07:36:04.019Z,945.77
2016-04-27T07:37:05.522Z,945.74
2016-04-27T07:38:04.290Z,945.77
2016-04-27T07:39:04.043Z,945.83
2016-04-27T07:40:04.046Z,945.84
2016-04-27T07:41:04.063Z,945.91
2016-04-27T07:42:04.066Z,945.99
2016-04-27T07:43:04.085Z,945.99
2016-04-27T07:44:04.088Z,945.94
2016-04-27T07:45:04.106Z,945.9
2016-04-27T07:46:04.108Z,945.93
2016-04-27T07:47:04.127Z,945.87
2016-04-27T07:48:04.130Z,945.88
2016-04-27T07:49:04.132Z,945.75
2016-04-27T07:50:04.151Z,945.69
2016-04-27T07:51:04.153Z,945.69
2016-04-27T07:52:04.171Z,945.78
2016-04-27T07:53:04.471Z,945.74
2016-04-27T07:54:04.192Z,945.62
2016-04-27T07:55:04.195Z,945.61
2016-04-27T07:56:04.214Z,945.56
2016-04-27T07:57:04.216Z,945.56
2016-04-27T07:58:04.234Z,945.66
2016-04-27T07:59:04.236Z,945.72
2016-04-27T08:00:04.255Z,945.8
2016-04-27T08:01:04.258Z,945.79
2016-04-27T08:02:04.277Z,945.82
2016-04-27T08:03:04.280Z,945.77
2016-04-27T08:04:04.297Z,945.76
2016-04-27T08:05:04.300Z,945.74
2016-04-27T08:06:04.318Z,945.78
2016-04-27T08:07:05.228Z,945.76
2016-04-27T08:08:04.324Z,945.77
2016-04-27T08:09:04.342Z,945.8
2016-04-27T08:10:04.360Z,945.86
2016-04-27T08:11:04.363Z,945.89
2016-04-27T08:12:04.382Z,945.84
2016-04-27T08:13:04.384Z,945.93
2016-04-27T08:14:04.418Z,945.89
2016-04-27T08:15:04.405Z,945.94
2016-04-27T08:16:04.424Z,945.97
2016-04-27T08:17:04.426Z,945.96
2016-04-27T08:18:04.445Z,946.08
2016-04-27T08:19:04.447Z,946.03
2016-04-27T08:20:04.466Z,946.1
2016-04-27T08:21:04.484Z,946.07
2016-04-27T08:22:05.706Z,946.07
2016-04-27T08:23:04.802Z,946.11
2016-04-27T08:24:04.507Z,946.12
2016-04-27T08:25:04.510Z,946.12
2016-04-27T08:26:04.528Z,946.13
2016-04-27T08:27:04.531Z,946.1
2016-04-27T08:28:04.549Z,946.15
2016-04-27T08:29:04.553Z,946.11
2016-04-27T08:30:04.617Z,946.13
2016-04-27T08:31:04.573Z,946.09
2016-04-27T08:32:04.592Z,946.08
2016-04-27T08:33:04.607Z,946.06
2016-04-27T08:34:04.611Z,946.08
2016-04-27T08:35:04.628Z,946.08
2016-04-27T08:36:04.630Z,946.08
2016-04-27T08:37:04.650Z,946.26
2016-04-27T08:38:04.667Z,946.14
2016-04-27T08:39:04.670Z,946.16
2016-04-27T08:40:04.672Z,946.2
2016-04-27T08:41:04.691Z,946.18
2016-04-27T08:42:04.710Z,946.18
2016-04-27T08:43:04.712Z,946.17
2016-04-27T08:44:04.730Z,946.19
2016-04-27T08:45:04.748Z,946.24
2016-04-27T08:46:04.752Z,946.2
2016-04-27T08:47:04.770Z,946.18
2016-04-27T08:48:04.772Z,946.19
2016-04-27T08:49:04.807Z,946.2
2016-04-27T08:50:04.793Z,946.18
2016-04-27T08:51:04.812Z,946.33
2016-04-27T08:52:04.830Z,946.31
2016-04-27T08:53:04.832Z,946.3
2016-04-27T08:54:04.851Z,946.29
2016-04-27T08:55:04.853Z,946.32
2016-04-27T08:56:04.951Z,946.31
2016-04-27T08:57:04.890Z,946.41
2016-04-27T08:58:04.892Z,946.43
2016-04-27T08:59:04.912Z,946.43
2016-04-27T09:00:04.914Z,946.39
2016-04-27T09:01:04.933Z,946.41
2016-04-27T09:02:04.950Z,946.38
2016-04-27T09:03:04.953Z,946.38
2016-04-27T09:04:04.972Z,946.39
2016-04-27T09:05:04.975Z,946.45
2016-04-27T09:06:04.992Z,946.43
2016-04-27T09:07:04.995Z,946.46
2016-04-27T09:08:05.014Z,946.43
2016-04-27T09:09:05.032Z,946.41
2016-04-27T09:10:05.035Z,946.47
2016-04-27T09:11:05.053Z,946.38
2016-04-27T09:12:05.056Z,946.32
2016-04-27T09:13:05.074Z,946.42
2016-04-27T09:14:05.076Z,946.37
2016-04-27T09:15:05.095Z,946.39
2016-04-27T09:16:05.113Z,946.42
2016-04-27T09:17:05.116Z,946.36
2016-04-27T09:18:05.135Z,946.5
2016-04-27T09:19:05.137Z,946.43
2016-04-27T09:20:05.155Z,946.41
2016-04-27T09:21:05.174Z,946.39
2016-04-27T09:22:05.785Z,946.37
2016-04-27T09:23:05.195Z,946.4
2016-04-27T09:24:05.198Z,946.39
2016-04-27T09:25:05.231Z,946.3
2016-04-27T09:26:05.234Z,946.34
2016-04-27T09:27:05.236Z,946.26
2016-04-27T09:28:05.256Z,946.37
2016-04-27T09:29:05.273Z,946.4
2016-04-27T09:30:05.276Z,946.43
2016-04-27T09:31:05.294Z,946.43
2016-04-27T09:32:05.312Z,946.46
2016-04-27T09:33:05.315Z,946.43
2016-04-27T09:34:05.334Z,946.53
2016-04-27T09:35:05.336Z,946.42
2016-04-27T09:36:05.355Z,946.46
2016-04-27T09:37:05.373Z,946.47
2016-04-27T09:38:05.407Z,946.46
2016-04-27T09:39:05.394Z,946.59
2016-04-27T09:40:05.412Z,946.61
2016-04-27T09:41:05.416Z,946.57
2016-04-27T09:42:05.433Z,946.63
2016-04-27T09:43:05.436Z,946.58
2016-04-27T09:44:05.455Z,946.57
2016-04-27T09:45:05.472Z,946.64
2016-04-27T09:46:05.491Z,946.59
2016-04-27T09:47:05.494Z,946.61
2016-04-27T09:48:05.496Z,946.61
2016-04-27T09:49:05.515Z,946.67
2016-04-27T09:50:05.533Z,946.64
2016-04-27T09:51:05.536Z,946.61
2016-04-27T09:52:05.554Z,946.61
2016-04-27T09:53:05.573Z,946.58
2016-04-27T09:54:05.576Z,946.56
2016-04-27T09:55:05.593Z,946.54
2016-04-27T09:56:05.595Z,946.53
2016-04-27T09:57:05.615Z,946.62
2016-04-27T09:58:05.632Z,946.52
2016-04-27T09:59:05.635Z,946.54
2016-04-27T10:00:05.654Z,946.45
2016-04-27T10:01:05.656Z,946.48
2016-04-27T10:02:05.675Z,946.44
2016-04-27T10:03:05.693Z,946.45
2016-04-27T10:04:05.695Z,946.5
2016-04-27T10:05:05.714Z,946.46
2016-04-27T10:06:05.717Z,946.39
2016-04-27T10:07:05.736Z,946.38
2016-04-27T10:08:05.769Z,946.47
2016-04-27T10:09:05.755Z,946.37
2016-04-27T10:10:05.775Z,946.44
2016-04-27T10:11:05.777Z,946.48
2016-04-27T10:12:05.794Z,946.51
2016-04-27T10:13:05.814Z,946.46
2016-04-27T10:14:05.816Z,946.6
2016-04-27T10:15:05.850Z,946.52
2016-04-27T10:16:05.837Z,946.49
2016-04-27T10:17:05.856Z,946.52
2016-04-27T10:18:05.874Z,946.52
2016-04-27T10:19:05.877Z,946.56
2016-04-27T10:20:05.896Z,946.57
2016-04-27T10:21:05.913Z,946.43
2016-04-27T10:22:05.920Z,946.49
2016-04-27T10:23:05.936Z,946.49
2016-04-27T10:24:05.939Z,946.58
2016-04-27T10:25:05.956Z,946.54
2016-04-27T10:26:05.976Z,946.57
2016-04-27T10:27:05.978Z,946.54
2016-04-27T10:28:05.997Z,946.62
2016-04-27T10:29:06.016Z,946.65
2016-04-27T10:30:06.018Z,946.74
2016-04-27T10:31:06.037Z,946.63
2016-04-27T10:32:06.055Z,946.7
2016-04-27T10:33:06.058Z,946.67
2016-04-27T10:34:06.076Z,946.75
2016-04-27T10:35:06.095Z,946.7
2016-04-27T10:36:06.112Z,946.69
2016-04-27T10:37:06.115Z,946.8
2016-04-27T10:38:06.134Z,946.68
2016-04-27T10:39:06.136Z,946.68
2016-04-27T10:40:06.155Z,946.68
2016-04-27T10:41:06.172Z,946.65
2016-04-27T10:42:06.176Z,946.64
2016-04-27T10:43:06.194Z,946.75
2016-04-27T10:44:06.213Z,946.68
2016-04-27T10:45:06.465Z,946.69
2016-04-27T10:46:06.233Z,946.68
2016-04-27T10:47:06.252Z,946.75
2016-04-27T10:48:06.270Z,946.66
2016-04-27T10:49:06.272Z,946.69
2016-04-27T10:50:06.291Z,946.67
2016-04-27T10:51:06.310Z,946.71
2016-04-27T10:52:06.312Z,946.71
2016-04-27T10:53:06.330Z,946.68
2016-04-27T10:54:06.349Z,946.66
2016-04-27T10:55:06.352Z,946.66
2016-04-27T10:56:06.370Z,946.71
2016-04-27T10:57:06.590Z,946.76
2016-04-27T10:58:06.407Z,946.72
2016-04-27T10:59:06.424Z,946.7
2016-04-27T11:00:06.463Z,946.7
2016-04-27T11:01:06.433Z,946.79
2016-04-27T11:02:06.452Z,946.71
2016-04-27T11:03:06.471Z,946.81
2016-04-27T11:04:06.474Z,946.86
2016-04-27T11:05:06.492Z,946.77
2016-04-27T11:06:06.510Z,946.84
2016-04-27T11:07:06.527Z,946.77
2016-04-27T11:08:06.781Z,946.94
2016-04-27T11:09:06.549Z,946.79
2016-04-27T11:10:06.552Z,946.83
2016-04-27T11:11:06.571Z,946.79
2016-04-27T11:12:06.604Z,946.89
2016-04-27T11:13:06.591Z,946.94
2016-04-27T11:14:06.610Z,946.95
2016-04-27T11:15:06.628Z,946.88
2016-04-27T11:16:06.631Z,946.87
2016-04-27T11:17:06.648Z,946.89
2016-04-27T11:18:06.668Z,946.91
2016-04-27T11:19:06.685Z,946.92
2016-04-27T11:20:06.688Z,946.84
2016-04-27T11:21:06.706Z,946.83
2016-04-27T11:22:06.709Z,946.84
2016-04-27T11:23:06.728Z,946.87
2016-04-27T11:24:06.745Z,946.8
2016-04-27T11:25:06.764Z,946.85
2016-04-27T11:26:06.767Z,946.9
2016-04-27T11:27:06.785Z,946.83
2016-04-27T11:28:06.788Z,946.9
2016-04-27T11:29:06.806Z,946.78
2016-04-27T11:30:06.840Z,946.77
2016-04-27T11:31:06.828Z,946.7
2016-04-27T11:32:06.845Z,946.78
2016-04-27T11:33:06.864Z,946.79
2016-04-27T11:34:06.897Z,946.65
2016-04-27T11:35:06.885Z,946.68
2016-04-27T11:36:06.903Z,946.79
2016-04-27T11:37:06.906Z,946.71
2016-04-27T11:38:06.925Z,946.78
2016-04-27T11:39:06.943Z,946.82
2016-04-27T11:40:06.945Z,946.96
2016-04-27T11:41:06.963Z,946.9
2016-04-27T11:42:06.982Z,946.83
2016-04-27T11:43:07.000Z,946.91
2016-04-27T11:44:07.002Z,946.93
2016-04-27T11:45:07.021Z,946.78
2016-04-27T11:46:07.039Z,946.85
2016-04-27T11:47:07.057Z,946.81
2016-04-27T11:48:07.092Z,946.78
2016-04-27T11:49:07.106Z,946.86
2016-04-27T11:50:07.170Z,946.86
2016-04-27T11:51:07.217Z,946.81
2016-04-27T11:52:07.280Z,946.79
2016-04-27T11:53:07.343Z,946.8
2016-04-27T11:54:07.389Z,946.78
2016-04-27T11:55:07.408Z,946.88
2016-04-27T11:56:07.521Z,946.73
2016-04-27T11:57:07.477Z,946.75
2016-04-27T11:58:07.496Z,946.77
2016-04-27T11:59:07.523Z,946.85
2016-04-27T12:00:07.548Z,946.83
2016-04-27T12:01:07.572Z,946.88
2016-04-27T12:02:07.580Z,946.8
2016-04-27T12:03:07.604Z,946.86
2016-04-27T12:04:07.627Z,946.8
2016-04-27T12:05:07.647Z,946.91
2016-04-27T12:06:07.652Z,946.84
2016-04-27T12:07:07.672Z,946.91
2016-04-27T12:08:07.693Z,947.04
2016-04-27T12:09:07.712Z,947.03
2016-04-27T12:10:07.716Z,947
2016-04-27T12:11:07.736Z,947.07
2016-04-27T12:12:07.755Z,947.12
2016-04-27T12:13:07.758Z,947.17
2016-04-27T12:14:07.777Z,947.2
2016-04-27T12:15:07.796Z,947.16
2016-04-27T12:16:07.814Z,947.14
2016-04-27T12:17:07.817Z,947.02
2016-04-27T12:18:07.836Z,947.09
2016-04-27T12:19:09.072Z,947.05
2016-04-27T12:20:07.873Z,947.19
2016-04-27T12:21:07.891Z,947.21
2016-04-27T12:22:07.893Z,947.08
2016-04-27T12:23:08.083Z,947.17
2016-04-27T12:24:07.931Z,947.06
2016-04-27T12:25:07.949Z,947.02
2016-04-27T12:26:07.967Z,947.08
2016-04-27T12:27:07.969Z,947.09
2016-04-27T12:28:07.988Z,947.21
2016-04-27T12:29:08.006Z,947.16
2016-04-27T12:30:08.024Z,947.04
2016-04-27T12:31:08.043Z,947.12
2016-04-27T12:32:08.062Z,947.03